createdAt,value
2023-03-06T00:00:23.346Z,50.20
2023-03-06T00:02:51.767Z,49.72
2023-03-06T00:05:19.641Z,48.38
2023-03-06T00:07:46.477Z,47.67
2023-03-06T00:12:47.648Z,47.25
2023-03-06T00:15:14.600Z,48.75
2023-03-06T00:17:41.717Z,57.97
2023-03-06T00:20:11.785Z,48.70
2023-03-06T00:22:38.820Z,46.83
2023-03-06T00:25:06.650Z,50.60
2023-03-06T00:27:34.227Z,50.33
2023-03-06T00:30:01.715Z,51.13
2023-03-06T00:32:29.027Z,50.67
2023-03-06T00:34:56.593Z,47.72
2023-03-06T00:37:25.085Z,51.55
2023-03-06T00:39:52.246Z,48.90
2023-03-06T00:42:19.650Z,48.28
2023-03-06T00:44:46.824Z,47.83
2023-03-06T00:47:17.125Z,48.40
2023-03-06T00:49:47.086Z,47.05
2023-03-06T00:52:14.116Z,47.97
2023-03-06T00:54:41.070Z,47.30
2023-03-06T00:57:08.236Z,46.08
2023-03-06T00:59:35.593Z,53.63
2023-03-06T01:02:03.205Z,51.72
2023-03-06T01:04:30.190Z,52.92
2023-03-06T01:09:24.316Z,52.05
2023-03-06T01:11:51.066Z,48.72
2023-03-06T01:14:19.380Z,49.25
2023-03-06T01:16:47.031Z,49.60
2023-03-06T01:19:14.014Z,52.15
2023-03-06T01:24:08.337Z,49.65
2023-03-06T01:26:35.648Z,48.08
2023-03-06T01:29:02.665Z,49.63
2023-03-06T01:31:29.511Z,50.90
2023-03-06T01:36:22.997Z,49.17
2023-03-06T01:38:49.753Z,49.30
2023-03-06T01:41:17.285Z,52.95
2023-03-06T01:43:46.117Z,49.72
2023-03-06T01:46:38.833Z,54.92
2023-03-06T01:49:05.567Z,47.45
2023-03-06T01:51:58.249Z,50.08
2023-03-06T01:54:50.452Z,50.90
2023-03-06T01:57:25.579Z,50.42
2023-03-06T02:00:00.190Z,52.15
2023-03-06T02:02:27.061Z,49.85
2023-03-06T02:07:21.646Z,47.28
2023-03-06T02:09:48.460Z,48.13
2023-03-06T02:14:44.919Z,47.75
2023-03-06T02:17:14.902Z,49.60
2023-03-06T02:19:54.984Z,49.25
2023-03-06T02:22:22.976Z,46.22
2023-03-06T02:25:17.291Z,49.55
2023-03-06T02:27:44.368Z,48.45
2023-03-06T02:30:16.098Z,49.42
2023-03-06T02:32:42.890Z,46.00
2023-03-06T02:35:19.619Z,45.58
2023-03-06T02:37:50.131Z,45.05
2023-03-06T02:40:18.660Z,47.47
2023-03-06T02:42:51.922Z,45.92
2023-03-06T02:47:48.992Z,47.40
2023-03-06T02:50:15.870Z,47.08
2023-03-06T02:52:42.620Z,44.75
2023-03-06T02:55:09.700Z,47.33
2023-03-06T02:57:36.458Z,46.55
2023-03-06T03:00:03.863Z,45.22
2023-03-06T03:02:30.621Z,45.85
2023-03-06T03:04:57.497Z,47.38
2023-03-06T03:09:50.881Z,44.92
2023-03-06T03:12:17.732Z,46.72
2023-03-06T03:14:44.624Z,45.00
2023-03-06T03:19:38.030Z,47.15
2023-03-06T03:22:04.751Z,45.08
2023-03-06T03:24:31.532Z,43.58
2023-03-06T03:26:58.395Z,49.90
2023-03-06T03:29:25.262Z,49.70
2023-03-06T03:31:52.036Z,47.45
2023-03-06T03:34:19.007Z,47.22
2023-03-06T03:36:46.835Z,43.95
2023-03-06T03:39:13.833Z,46.67
2023-03-06T03:41:40.690Z,45.90
2023-03-06T03:44:07.601Z,46.80
2023-03-06T03:49:01.147Z,51.25
2023-03-06T03:51:27.928Z,45.63
2023-03-06T03:53:56.795Z,45.30
2023-03-06T03:56:24.441Z,50.05
2023-03-06T03:58:51.421Z,44.15
2023-03-06T04:01:18.306Z,46.50
2023-03-06T04:06:11.938Z,46.03
2023-03-06T04:08:38.665Z,45.03
2023-03-06T04:11:05.604Z,41.78
2023-03-06T04:15:59.748Z,44.30
2023-03-06T04:18:26.941Z,49.67
2023-03-06T04:20:53.795Z,44.45
2023-03-06T04:23:21.113Z,47.80
2023-03-06T04:25:47.925Z,47.35
2023-03-06T04:28:14.802Z,47.35
2023-03-06T04:33:08.690Z,44.40
2023-03-06T04:38:02.597Z,43.45
2023-03-06T04:40:31.808Z,47.45
2023-03-06T04:43:00.349Z,43.05
2023-03-06T04:45:28.717Z,44.85
2023-03-06T04:47:55.810Z,43.92
2023-03-06T04:50:23.984Z,43.40
2023-03-06T04:52:51.647Z,46.53
2023-03-06T04:55:18.903Z,45.03
2023-03-06T04:57:47.127Z,44.30
2023-03-06T05:00:23.236Z,48.53
2023-03-06T05:02:50.769Z,47.17
2023-03-06T05:05:18.373Z,49.40
2023-03-06T05:07:45.485Z,43.10
2023-03-06T05:10:14.645Z,49.33
2023-03-06T05:12:41.690Z,46.88
2023-03-06T05:15:09.759Z,48.70
2023-03-06T05:17:36.769Z,47.35
2023-03-06T05:20:06.321Z,48.75
2023-03-06T05:22:34.319Z,50.03
2023-03-06T05:25:01.173Z,43.80
2023-03-06T05:27:28.743Z,47.75
2023-03-06T05:29:55.755Z,48.00
2023-03-06T05:32:22.926Z,45.58
2023-03-06T05:34:50.025Z,47.00
2023-03-06T05:37:17.029Z,47.83
2023-03-06T05:39:43.981Z,49.75
2023-03-06T05:42:10.889Z,46.85
2023-03-06T05:47:05.030Z,51.88
2023-03-06T05:51:58.850Z,52.33
2023-03-06T05:54:26.664Z,52.55
2023-03-06T05:56:53.624Z,51.38
2023-03-06T06:01:47.150Z,50.70
2023-03-06T06:04:13.858Z,51.03
2023-03-06T06:06:40.641Z,49.28
2023-03-06T06:09:07.381Z,55.58
2023-03-06T06:11:34.198Z,49.80
2023-03-06T06:14:00.956Z,56.28
2023-03-06T06:16:27.676Z,59.60
2023-03-06T06:18:54.372Z,64.65
2023-03-06T06:21:21.178Z,59.97
2023-03-06T06:23:48.010Z,56.60
2023-03-06T06:26:15.677Z,59.28
2023-03-06T06:28:42.495Z,60.90
2023-03-06T06:31:12.100Z,59.05
2023-03-06T06:33:40.546Z,63.53
2023-03-06T06:36:19.370Z,57.45
2023-03-06T06:38:46.250Z,57.47
2023-03-06T06:41:38.768Z,60.15
2023-03-06T06:43:59.825Z,63.45
2023-03-06T06:47:14.397Z,60.53
2023-03-06T06:49:14.808Z,52.97
2023-03-06T06:51:42.063Z,57.35
2023-03-06T06:54:10.010Z,52.60
2023-03-06T06:56:36.755Z,55.13
2023-03-06T06:59:16.176Z,56.78
2023-03-06T07:01:43.920Z,60.97
2023-03-06T07:04:13.500Z,58.00
2023-03-06T07:06:40.952Z,50.90
2023-03-06T07:09:07.839Z,48.10
2023-03-06T07:14:02.051Z,51.63
2023-03-06T07:16:28.856Z,55.50
2023-03-06T07:18:55.676Z,62.35
2023-03-06T07:21:22.476Z,52.28
2023-03-06T07:23:49.271Z,55.08
2023-03-06T07:26:16.025Z,63.95
2023-03-06T07:28:51.943Z,58.92
2023-03-06T07:31:25.749Z,56.55
2023-03-06T07:33:54.447Z,63.83
2023-03-06T07:36:23.291Z,60.30
2023-03-06T07:38:50.382Z,74.85
2023-03-06T07:41:21.843Z,56.53
2023-03-06T07:43:49.979Z,56.67
2023-03-06T07:46:17.600Z,54.97
2023-03-06T07:48:44.735Z,55.17
2023-03-06T07:51:16.814Z,59.03
2023-03-06T07:53:44.324Z,58.42
2023-03-06T07:56:11.909Z,58.58
2023-03-06T07:58:41.266Z,62.58
2023-03-06T08:01:11.325Z,59.80
2023-03-06T08:03:38.235Z,67.25
2023-03-06T08:08:39.302Z,64.63
2023-03-06T08:11:07.298Z,62.97
2023-03-06T08:13:34.479Z,60.25
2023-03-06T08:16:01.500Z,69.40
2023-03-06T08:18:28.803Z,65.95
2023-03-06T08:21:06.107Z,62.33
2023-03-06T08:23:33.744Z,63.08
2023-03-06T08:26:02.832Z,63.85
2023-03-06T08:28:29.787Z,64.43
2023-03-06T08:33:25.004Z,71.80
2023-03-06T08:35:52.748Z,64.85
2023-03-06T08:38:19.556Z,67.25
2023-03-06T08:40:46.512Z,62.42
2023-03-06T08:45:41.217Z,63.20
2023-03-06T08:48:08.142Z,64.70
2023-03-06T08:53:01.943Z,77.90
2023-03-06T08:55:28.748Z,62.88
2023-03-06T08:57:55.505Z,69.85
2023-03-06T09:00:25.219Z,72.32
2023-03-06T09:02:52.080Z,73.45
2023-03-06T09:05:20.312Z,72.30
2023-03-06T09:07:47.194Z,70.10
2023-03-06T09:12:50.843Z,70.78
2023-03-06T09:15:20.640Z,65.78
2023-03-06T09:17:48.007Z,66.47
2023-03-06T09:20:15.154Z,68.00
2023-03-06T09:22:42.525Z,71.50
2023-03-06T09:25:11.148Z,70.90
2023-03-06T09:27:37.908Z,75.18
2023-03-06T09:30:05.443Z,66.32
2023-03-06T09:32:32.537Z,64.35
2023-03-06T09:34:59.340Z,70.70
2023-03-06T09:37:26.087Z,70.10
2023-03-06T09:39:52.851Z,76.80
2023-03-06T09:42:23.497Z,68.10
2023-03-06T09:45:00.323Z,75.97
2023-03-06T09:47:49.309Z,71.95
2023-03-06T09:50:44.501Z,68.38
2023-03-06T09:53:39.282Z,63.17
2023-03-06T09:56:21.991Z,63.03
2023-03-06T09:58:56.265Z,59.13
2023-03-06T10:01:35.009Z,56.97
2023-03-06T10:04:20.259Z,60.05
2023-03-06T10:06:50.305Z,58.97
2023-03-06T10:09:21.843Z,58.92
2023-03-06T10:12:03.709Z,54.38
2023-03-06T10:14:48.885Z,54.97
2023-03-06T10:17:22.154Z,58.58
2023-03-06T10:19:49.804Z,56.50
2023-03-06T10:22:30.653Z,52.03
2023-03-06T10:25:24.283Z,52.78
2023-03-06T10:28:03.241Z,56.20
2023-03-06T10:30:51.872Z,52.25
2023-03-06T10:33:18.588Z,55.58
2023-03-06T10:35:56.408Z,54.17
2023-03-06T10:38:32.344Z,52.85
2023-03-06T10:41:11.436Z,53.45
2023-03-06T10:44:05.032Z,57.10
2023-03-06T10:46:37.247Z,53.40
2023-03-06T10:49:23.812Z,48.75
2023-03-06T10:52:02.402Z,50.13
2023-03-06T10:54:32.209Z,51.00
2023-03-06T10:57:27.412Z,50.55
2023-03-06T10:59:59.179Z,50.90
2023-03-06T11:02:32.764Z,50.33
2023-03-06T11:05:01.311Z,49.72
2023-03-06T11:07:33.211Z,50.28
2023-03-06T11:10:04.294Z,49.63
2023-03-06T11:12:34.078Z,53.63
2023-03-06T11:15:09.609Z,49.78
2023-03-06T11:17:49.117Z,51.65
2023-03-06T11:20:25.353Z,58.70
2023-03-06T11:23:15.316Z,48.80
2023-03-06T11:25:53.252Z,54.28
2023-03-06T11:28:19.962Z,53.42
2023-03-06T11:33:35.592Z,44.83
2023-03-06T11:36:25.238Z,46.67
2023-03-06T11:38:53.624Z,48.95
2023-03-06T11:41:39.317Z,52.33
2023-03-06T11:44:28.021Z,48.92
2023-03-06T11:47:11.035Z,51.05
2023-03-06T11:49:49.218Z,48.65
2023-03-06T11:52:46.777Z,47.80
2023-03-06T11:55:20.801Z,48.45
2023-03-06T11:57:59.953Z,49.70
2023-03-06T12:00:41.076Z,50.47
2023-03-06T12:03:29.182Z,45.70
2023-03-06T12:06:18.560Z,49.58
2023-03-06T12:08:45.286Z,55.30
2023-03-06T12:14:19.839Z,42.13
2023-03-06T12:17:09.882Z,48.45
2023-03-06T12:19:54.399Z,48.60
2023-03-06T12:22:31.225Z,43.42
2023-03-06T12:25:17.287Z,43.25
2023-03-06T12:28:11.968Z,39.42
2023-03-06T12:30:57.120Z,42.63
2023-03-06T12:33:45.071Z,42.53
2023-03-06T12:36:26.578Z,43.55
2023-03-06T12:39:00.982Z,41.58
2023-03-06T12:41:31.188Z,45.30
2023-03-06T12:44:01.024Z,42.50
2023-03-06T12:46:28.585Z,44.13
2023-03-06T12:49:32.059Z,43.90
2023-03-06T12:52:01.332Z,44.47
2023-03-06T12:54:30.919Z,39.95
2023-03-06T12:57:00.268Z,40.65
2023-03-06T12:59:38.430Z,41.03
2023-03-06T13:02:32.931Z,45.85
2023-03-06T13:05:02.446Z,41.08
2023-03-06T13:07:47.755Z,43.33
2023-03-06T13:10:21.323Z,41.40
2023-03-06T13:12:55.898Z,42.53
2023-03-06T13:15:39.257Z,38.83
2023-03-06T13:18:24.195Z,37.80
2023-03-06T13:20:51.784Z,36.55
2023-03-06T13:23:33.269Z,36.53
2023-03-06T13:26:09.826Z,40.22
2023-03-06T13:28:54.246Z,39.58
2023-03-06T13:31:36.457Z,37.25
2023-03-06T13:34:24.797Z,41.10
2023-03-06T13:36:51.647Z,35.13
2023-03-06T13:39:18.419Z,34.20
2023-03-06T13:41:59.413Z,33.67
2023-03-06T13:44:26.161Z,34.28
2023-03-06T13:49:46.698Z,37.63
2023-03-06T13:52:41.725Z,38.80
2023-03-06T13:55:38.536Z,32.97
2023-03-06T13:58:17.309Z,34.00
2023-03-06T14:01:07.026Z,35.50
2023-03-06T14:04:11.083Z,28.85
2023-03-06T14:06:38.459Z,39.13
2023-03-06T14:09:26.933Z,36.80
2023-03-06T14:12:00.644Z,40.03
2023-03-06T14:14:39.558Z,37.40
2023-03-06T14:17:06.594Z,38.22
2023-03-06T14:19:38.395Z,35.83
2023-03-06T14:22:07.012Z,33.63
2023-03-06T14:24:43.494Z,35.13
2023-03-06T14:27:18.765Z,36.25
2023-03-06T14:29:48.611Z,35.55
2023-03-06T14:32:18.092Z,31.83
2023-03-06T14:34:46.173Z,40.47
2023-03-06T14:37:22.767Z,34.67
2023-03-06T14:39:49.871Z,37.08
2023-03-06T14:42:25.475Z,37.97
2023-03-06T14:45:16.422Z,39.10
2023-03-06T14:47:44.483Z,39.50
2023-03-06T14:50:27.052Z,41.97
2023-03-06T14:53:06.129Z,38.97
2023-03-06T14:55:35.552Z,37.53
2023-03-06T14:58:10.222Z,36.40
2023-03-06T15:00:42.413Z,38.97
2023-03-06T15:03:21.396Z,40.28
2023-03-06T15:05:49.388Z,35.80
2023-03-06T15:08:25.261Z,33.75
2023-03-06T15:11:00.817Z,34.80
2023-03-06T15:13:29.716Z,35.15
2023-03-06T15:16:00.914Z,41.13
2023-03-06T15:18:38.724Z,36.25
2023-03-06T15:21:16.316Z,35.15
2023-03-06T15:23:57.014Z,39.10
2023-03-06T15:26:34.486Z,36.53
2023-03-06T15:29:09.429Z,34.97
2023-03-06T15:31:38.324Z,28.88
2023-03-06T15:34:10.925Z,36.28
2023-03-06T15:36:56.147Z,30.95
2023-03-06T15:39:42.966Z,29.65
2023-03-06T15:42:26.450Z,33.28
2023-03-06T15:44:55.517Z,31.95
2023-03-06T15:47:23.867Z,27.40
2023-03-06T15:49:53.179Z,24.67
2023-03-06T15:52:21.423Z,31.70
2023-03-06T15:54:51.323Z,24.80
2023-03-06T15:57:30.879Z,28.00
2023-03-06T16:00:00.273Z,23.95
2023-03-06T16:02:27.424Z,24.08
2023-03-06T16:04:54.265Z,26.60
2023-03-06T16:09:48.909Z,21.35
2023-03-06T16:12:18.428Z,23.92
2023-03-06T16:14:47.412Z,25.33
2023-03-06T16:17:15.420Z,24.05
2023-03-06T16:19:43.142Z,25.08
2023-03-06T16:22:10.102Z,24.02
2023-03-06T16:24:37.268Z,23.00
2023-03-06T16:27:04.776Z,29.08
2023-03-06T16:29:31.940Z,27.95
2023-03-06T16:32:00.764Z,25.77
2023-03-06T16:34:27.844Z,26.15
2023-03-06T16:36:54.737Z,26.23
2023-03-06T16:39:23.060Z,22.80
2023-03-06T16:41:50.722Z,26.00
2023-03-06T16:44:17.605Z,24.65
2023-03-06T16:46:46.935Z,25.13
2023-03-06T16:49:21.678Z,25.70
2023-03-06T16:51:48.912Z,25.50
2023-03-06T16:54:15.693Z,27.45
2023-03-06T16:59:09.949Z,29.80
2023-03-06T17:01:37.194Z,27.25
2023-03-06T17:04:04.165Z,29.13
2023-03-06T17:06:30.964Z,28.95
2023-03-06T17:11:25.142Z,27.25
2023-03-06T17:13:52.102Z,27.13
2023-03-06T17:16:18.964Z,32.28
2023-03-06T17:18:46.324Z,29.75
2023-03-06T17:21:15.704Z,32.63
2023-03-06T17:23:43.072Z,27.27
2023-03-06T17:26:13.076Z,28.40
2023-03-06T17:28:41.184Z,31.95
2023-03-06T17:31:19.893Z,26.75
2023-03-06T17:33:47.360Z,28.05
2023-03-06T17:36:15.283Z,30.17
2023-03-06T17:38:42.949Z,34.13
2023-03-06T17:41:10.954Z,28.08
2023-03-06T17:43:39.007Z,28.40
2023-03-06T17:46:12.059Z,28.45
2023-03-06T17:51:06.339Z,27.65
2023-03-06T17:53:33.775Z,26.92
2023-03-06T17:56:06.601Z,26.40
2023-03-06T17:58:33.805Z,27.38
2023-03-06T18:01:00.898Z,32.28
2023-03-06T18:03:27.701Z,31.88
2023-03-06T18:08:27.915Z,28.55
2023-03-06T18:13:34.379Z,32.72
2023-03-06T18:16:01.432Z,37.65
2023-03-06T18:18:28.938Z,42.10
2023-03-06T18:20:55.911Z,33.70
2023-03-06T18:23:23.479Z,33.10
2023-03-06T18:25:50.679Z,31.13
2023-03-06T18:28:17.532Z,37.13
2023-03-06T18:30:44.258Z,40.15
2023-03-06T18:33:11.087Z,33.22
2023-03-06T18:38:04.651Z,37.33
2023-03-06T18:40:31.428Z,35.55
2023-03-06T18:45:25.258Z,42.20
2023-03-06T18:47:52.116Z,31.88
2023-03-06T18:52:46.480Z,29.63
2023-03-06T18:55:13.370Z,33.90
2023-03-06T18:57:40.203Z,31.73
2023-03-06T19:02:34.584Z,33.55
2023-03-06T19:07:27.958Z,33.70
2023-03-06T19:09:54.770Z,28.55
2023-03-06T19:12:21.573Z,28.65
2023-03-06T19:17:15.098Z,26.90
2023-03-06T19:19:41.848Z,29.83
2023-03-06T19:24:35.498Z,32.75
2023-03-06T19:27:02.381Z,31.55
2023-03-06T19:29:29.275Z,33.35
2023-03-06T19:31:58.998Z,30.40
2023-03-06T19:34:25.889Z,37.78
2023-03-06T19:36:52.801Z,32.63
2023-03-06T19:39:19.644Z,31.45
2023-03-06T19:44:16.375Z,33.55
2023-03-06T19:46:46.146Z,34.00
2023-03-06T19:49:16.815Z,35.63
2023-03-06T19:51:44.192Z,36.17
2023-03-06T19:54:12.411Z,37.42
2023-03-06T19:56:39.651Z,37.65
2023-03-06T19:59:06.682Z,33.13
2023-03-06T20:01:34.368Z,36.30
2023-03-06T20:04:01.832Z,36.58
2023-03-06T20:06:31.355Z,39.20
2023-03-06T20:08:58.209Z,37.70
2023-03-06T20:13:53.923Z,42.60
2023-03-06T20:16:20.993Z,32.45
2023-03-06T20:18:47.859Z,38.42
2023-03-06T20:23:42.824Z,33.78
2023-03-06T20:26:12.148Z,32.92
2023-03-06T20:28:40.725Z,34.45
2023-03-06T20:31:09.415Z,35.22
2023-03-06T20:33:36.138Z,38.03
2023-03-06T20:36:03.137Z,35.28
2023-03-06T20:38:30.010Z,34.80
2023-03-06T20:43:24.790Z,34.33
2023-03-06T20:45:59.793Z,36.63
2023-03-06T20:48:26.926Z,32.97
2023-03-06T20:51:05.458Z,41.53
2023-03-06T20:53:32.865Z,35.15
2023-03-06T20:55:59.644Z,32.45
2023-03-06T21:00:56.077Z,33.90
2023-03-06T21:03:24.147Z,34.80
2023-03-06T21:05:50.956Z,35.22
2023-03-06T21:10:46.575Z,34.97
2023-03-06T21:13:13.901Z,33.80
2023-03-06T21:15:44.313Z,32.55
2023-03-06T21:18:11.582Z,34.10
2023-03-06T21:20:39.405Z,38.22
2023-03-06T21:23:07.308Z,44.08
2023-03-06T21:25:34.559Z,39.92
2023-03-06T21:28:01.321Z,34.45
2023-03-06T21:30:28.716Z,35.47
2023-03-06T21:32:55.968Z,40.53
2023-03-06T21:35:22.794Z,35.42
2023-03-06T21:40:16.597Z,34.75
2023-03-06T21:42:43.504Z,38.47
2023-03-06T21:45:10.829Z,39.85
2023-03-06T21:47:38.841Z,36.65
2023-03-06T21:50:07.213Z,35.47
2023-03-06T21:52:34.117Z,38.13
2023-03-06T21:57:27.908Z,35.88
2023-03-06T21:59:54.703Z,40.25
2023-03-06T22:02:21.788Z,37.08
2023-03-06T22:04:52.803Z,33.97
2023-03-06T22:07:20.736Z,36.63
2023-03-06T22:09:47.759Z,35.10
2023-03-06T22:12:14.599Z,38.10
2023-03-06T22:17:10.263Z,33.10
2023-03-06T22:22:04.093Z,37.17
2023-03-06T22:24:31.953Z,32.92
2023-03-06T22:26:59.130Z,39.47
2023-03-06T22:29:26.349Z,36.22
2023-03-06T22:31:53.121Z,35.40
2023-03-06T22:34:19.980Z,38.85
2023-03-06T22:36:46.805Z,36.13
2023-03-06T22:41:40.800Z,37.97
2023-03-06T22:44:07.575Z,36.88
2023-03-06T22:46:34.407Z,34.80
2023-03-06T22:49:01.792Z,42.72
2023-03-06T22:51:29.730Z,39.65
2023-03-06T22:53:56.540Z,41.75
2023-03-06T22:56:23.357Z,40.97
2023-03-06T22:58:50.361Z,40.42
2023-03-06T23:01:20.097Z,40.85
2023-03-06T23:03:52.291Z,40.45
2023-03-06T23:06:23.761Z,40.45
2023-03-06T23:08:53.381Z,40.22
2023-03-06T23:11:21.549Z,42.05
2023-03-06T23:13:48.385Z,37.65
2023-03-06T23:16:15.239Z,38.47
2023-03-06T23:21:13.911Z,40.47
2023-03-06T23:23:41.337Z,39.88
2023-03-06T23:26:09.066Z,45.08
2023-03-06T23:28:35.918Z,47.70
2023-03-06T23:31:10.730Z,44.10
2023-03-06T23:33:38.826Z,48.08
2023-03-06T23:36:08.047Z,46.97
2023-03-06T23:38:35.449Z,48.63
2023-03-06T23:41:07.106Z,50.08
2023-03-06T23:43:34.141Z,46.15
2023-03-06T23:46:01.527Z,43.38
2023-03-06T23:48:29.206Z,44.47
2023-03-06T23:50:56.466Z,51.80
2023-03-06T23:53:23.476Z,42.13
2023-03-06T23:55:51.134Z,45.15
2023-03-06T23:58:19.214Z,46.75
